Time;durP1;ratioP1;P1;durP2;ratioP2;P2;SDS_P1;SDS_P2;PMS_P1;PMS_P2;Temp;Humidity;BMP_temperature;BMP_pressure;BME280_temperature;BME280_humidity;BME280_pressure;Samples;Min_cycle;Max_cycle;Signal;HPM_P1;HPM_P2
2022/03/15 00:00:46;;;;;;;11.05;6.93;;;;;;;2.37;40.02;95485.13;4959242;28;20030;-72
2022/03/15 00:03:12;;;;;;;11.38;6.25;;;;;;;2.12;39.85;95458.19;4971501;28;20037;-75
2022/03/15 00:05:37;;;;;;;21.05;10.55;;;;;;;2.30;39.91;95494.94;4955988;28;20058;-75
2022/03/15 00:08:04;;;;;;;14.38;9.00;;;;;;;2.05;39.83;95481.09;4965566;28;20425;-75
2022/03/15 00:10:29;;;;;;;25.05;11.35;;;;;;;2.09;39.85;95488.31;4965243;28;20031;-74
2022/03/15 00:12:56;;;;;;;16.98;8.75;;;;;;;2.19;39.74;95500.91;4970260;28;20375;-74
2022/03/15 00:15:23;;;;;;;16.65;8.98;;;;;;;2.19;39.83;95495.66;4978903;28;20042;-75
2022/03/15 00:17:48;;;;;;;15.73;8.57;;;;;;;2.00;39.72;95467.81;4967034;28;20035;-75
2022/03/15 00:20:18;;;;;;;14.02;8.30;;;;;;;2.31;39.73;95499.16;4960638;28;20129;-74
2022/03/15 00:22:44;;;;;;;17.70;8.73;;;;;;;2.13;39.61;95459.78;4965628;28;20334;-72
2022/03/15 00:25:13;;;;;;;18.73;8.70;;;;;;;2.17;39.87;95487.19;4963918;28;20497;-75
2022/03/15 00:27:39;;;;;;;13.75;8.13;;;;;;;2.05;40.05;95470.59;4960923;28;20487;-71
2022/03/15 00:30:06;;;;;;;13.68;8.77;;;;;;;2.10;40.03;95478.63;4965135;28;20039;-72
2022/03/15 00:32:32;;;;;;;13.90;6.88;;;;;;;1.69;40.10;95418.88;4957179;28;20026;-75
2022/03/15 00:34:58;;;;;;;18.77;9.07;;;;;;;1.97;40.43;95470.88;4961630;28;20397;-72
2022/03/15 00:37:23;;;;;;;19.08;8.02;;;;;;;2.05;40.25;95465.34;4957781;28;20039;-72
2022/03/15 00:39:50;;;;;;;13.73;6.88;;;;;;;1.95;40.58;95465.06;4964784;28;20362;-73
2022/03/15 00:42:16;;;;;;;13.45;7.03;;;;;;;1.99;40.43;95474.09;4962976;28;20038;-72
2022/03/15 00:44:41;;;;;;;13.40;8.25;;;;;;;1.90;40.52;95467.53;4965738;28;20093;-75
2022/03/15 00:47:08;;;;;;;13.25;7.35;;;;;;;1.92;40.56;95486.47;4958663;28;20453;-74
2022/03/15 00:49:34;;;;;;;16.95;7.55;;;;;;;1.85;40.45;95486.53;4962432;28;20270;-75
2022/03/15 00:52:00;;;;;;;12.95;7.10;;;;;;;1.80;40.70;95483.75;4964344;28;20370;-75
2022/03/15 00:54:26;;;;;;;13.35;8.25;;;;;;;1.82;40.57;95468.56;4956209;28;20033;-74
2022/03/15 00:56:52;;;;;;;15.00;7.65;;;;;;;1.80;40.40;95446.22;4970277;28;20035;-74
2022/03/15 00:59:17;;;;;;;17.48;11.32;;;;;;;1.59;40.63;95424.63;4954795;28;20312;-74
2022/03/15 01:01:43;;;;;;;30.17;14.63;;;;;;;1.66;40.57;95422.75;4961308;28;20057;-75
2022/03/15 01:04:08;;;;;;;23.15;12.93;;;;;;;1.83;40.83;95451.00;4958667;28;20374;-74
2022/03/15 01:06:38;;;;;;;22.52;11.32;;;;;;;1.76;40.77;95434.56;4960556;28;20154;-75
2022/03/15 01:09:04;;;;;;;14.70;8.90;;;;;;;1.75;40.62;95427.69;4984251;28;20050;-74
2022/03/15 01:11:36;;;;;;;18.88;8.65;;;;;;;1.70;40.51;95419.69;4960701;28;20026;-73
2022/03/15 01:14:02;;;;;;;13.57;6.75;;;;;;;1.61;40.49;95406.88;4969074;28;20417;-74
2022/03/15 01:16:29;;;;;;;14.63;7.70;;;;;;;1.76;40.39;95455.53;4959840;28;20517;-74
2022/03/15 01:18:55;;;;;;;15.90;8.10;;;;;;;1.26;40.45;95382.22;4962589;28;20405;-74
2022/03/15 01:21:21;;;;;;;12.02;6.82;;;;;;;1.60;40.43;95441.97;4961826;28;20062;-74
2022/03/15 01:23:46;;;;;;;12.07;7.38;;;;;;;1.64;40.41;95443.16;4959622;28;20133;-75
2022/03/15 01:26:14;;;;;;;11.15;6.53;;;;;;;1.52;40.56;95423.09;4979014;28;20066;-75
2022/03/15 01:28:41;;;;;;;11.27;5.70;;;;;;;1.77;40.54;95457.13;4955675;28;21081;-75
2022/03/15 01:31:07;;;;;;;10.32;6.72;;;;;;;1.62;40.51;95418.13;4963906;28;20620;-74
2022/03/15 01:33:32;;;;;;;11.65;5.78;;;;;;;1.68;40.38;95444.31;4965957;28;20043;-75
2022/03/15 01:35:59;;;;;;;9.63;5.82;;;;;;;1.58;40.29;95433.50;4967059;28;20045;-72
2022/03/15 01:38:34;;;;;;;10.63;6.18;;;;;;;1.78;40.38;95470.03;4961281;28;20022;-74
2022/03/15 01:40:59;;;;;;;16.20;8.48;;;;;;;1.48;40.55;95429.78;4967153;28;20022;-75
2022/03/15 01:43:24;;;;;;;11.95;7.20;;;;;;;1.38;40.78;95432.91;4965701;28;20561;-75
2022/03/15 01:45:50;;;;;;;13.23;8.10;;;;;;;1.50;40.77;95467.91;4952741;28;20936;-74
2022/03/15 01:48:16;;;;;;;13.55;7.28;;;;;;;1.57;40.79;95473.88;4965112;28;20601;-75
2022/03/15 01:50:41;;;;;;;12.65;7.20;;;;;;;1.52;40.85;95444.88;4954860;28;20425;-75
2022/03/15 01:53:07;;;;;;;16.08;7.63;;;;;;;1.58;40.88;95479.91;4966996;28;20102;-74
2022/03/15 01:55:34;;;;;;;11.45;6.65;;;;;;;1.55;41.02;95475.91;4973688;28;20181;-75
2022/03/15 01:57:59;;;;;;;10.48;6.13;;;;;;;1.39;40.84;95455.47;4964471;28;20042;-75
2022/03/15 02:00:25;;;;;;;14.32;6.93;;;;;;;1.34;41.03;95455.31;5001051;28;20081;-74
2022/03/15 02:02:50;;;;;;;12.10;7.78;;;;;;;1.43;40.84;95487.31;4969296;28;20050;-75
2022/03/15 02:05:16;;;;;;;13.52;6.88;;;;;;;1.39;41.12;95476.47;4968293;28;20026;-75
2022/03/15 02:07:41;;;;;;;13.13;7.78;;;;;;;1.33;41.04;95458.97;4965654;28;20428;-75
2022/03/15 02:10:07;;;;;;;15.40;7.45;;;;;;;0.99;41.11;95402.59;4966067;28;20477;-75
2022/03/15 02:12:38;;;;;;;15.90;8.00;;;;;;;1.16;41.49;95442.19;4980715;28;20472;-75
2022/03/15 02:15:06;;;;;;;9.80;5.80;;;;;;;-0.25;41.32;95216.72;4970908;28;20046;-73
2022/03/15 02:17:31;;;;;;;9.98;6.75;;;;;;;1.33;41.02;95445.84;4965116;28;20198;-74
2022/03/15 02:19:57;;;;;;;10.77;5.65;;;;;;;1.14;41.44;95434.53;4968236;28;20033;-75
2022/03/15 02:22:23;;;;;;;13.13;6.85;;;;;;;1.12;41.64;95441.03;4965785;28;20041;-74
2022/03/15 02:24:49;;;;;;;13.98;7.85;;;;;;;1.28;41.39;95458.81;4964993;28;20030;-75
2022/03/15 02:27:15;;;;;;;15.32;6.25;;;;;;;1.26;41.47;95441.69;4980930;28;20468;-75
2022/03/15 02:29:41;;;;;;;12.73;6.40;;;;;;;1.28;41.24;95448.31;4965349;28;20070;-74
2022/03/15 02:32:07;;;;;;;14.18;6.90;;;;;;;1.33;41.07;95450.28;4970630;28;20109;-75
2022/03/15 02:34:33;;;;;;;10.05;6.60;;;;;;;1.28;41.06;95437.84;4962188;28;20035;-74
2022/03/15 02:36:58;;;;;;;15.10;6.43;;;;;;;1.19;41.46;95437.31;4966002;28;20747;-74
2022/03/15 02:39:24;;;;;;;18.27;8.57;;;;;;;1.07;41.42;95406.78;4971506;28;20030;-74
2022/03/15 02:41:53;;;;;;;15.48;8.52;;;;;;;1.23;41.44;95429.81;4967078;28;20042;-73
2022/03/15 02:44:18;;;;;;;19.23;8.82;;;;;;;1.21;41.55;95435.28;4964437;28;20105;-74
2022/03/15 02:46:49;;;;;;;11.80;7.35;;;;;;;1.12;41.31;95417.44;4963679;28;20403;-74
2022/03/15 02:49:16;;;;;;;17.45;9.63;;;;;;;1.30;41.24;95446.28;4979266;28;20050;-74
2022/03/15 02:51:41;;;;;;;14.70;7.93;;;;;;;1.45;40.86;95443.34;4969290;28;20377;-75
2022/03/15 02:54:08;;;;;;;13.40;7.68;;;;;;;1.25;41.06;95440.91;4963218;28;20635;-75
2022/03/15 02:56:35;;;;;;;18.85;8.30;;;;;;;1.20;41.40;95445.97;4964083;28;20018;-74
2022/03/15 02:59:01;;;;;;;15.88;8.57;;;;;;;1.27;41.49;95454.59;4971415;28;20033;-75
2022/03/15 03:01:26;;;;;;;17.00;9.30;;;;;;;1.22;41.27;95443.97;4968086;28;20042;-75
2022/03/15 03:03:53;;;;;;;22.55;11.85;;;;;;;1.30;41.41;95446.28;4968105;28;20042;-75
2022/03/15 03:06:18;;;;;;;22.42;10.73;;;;;;;1.10;41.49;95420.25;4977265;28;20046;-72
2022/03/15 03:08:44;;;;;;;28.60;13.27;;;;;;;1.09;41.75;95436.19;4966595;28;20047;-75
2022/03/15 03:11:10;;;;;;;29.13;13.57;;;;;;;0.97;41.91;95404.66;4965857;28;20783;-74
2022/03/15 03:13:37;;;;;;;25.98;11.60;;;;;;;1.01;41.87;95410.25;4965265;28;20034;-74
2022/03/15 03:16:06;;;;;;;22.30;10.57;;;;;;;1.38;41.35;95437.34;4993404;28;20042;-73
2022/03/15 03:18:32;;;;;;;22.35;12.63;;;;;;;0.44;41.64;95335.38;4985320;28;20132;-72
2022/03/15 03:21:04;;;;;;;25.02;12.45;;;;;;;0.95;42.06;95429.44;4967924;28;20043;-75
2022/03/15 03:23:34;;;;;;;21.42;11.95;;;;;;;0.95;42.36;95429.44;4965194;28;20031;-71
2022/03/15 03:26:01;;;;;;;24.48;13.23;;;;;;;0.85;42.37;95410.78;4965676;28;20342;-72
2022/03/15 03:28:36;;;;;;;24.90;13.75;;;;;;;0.89;42.29;95401.50;4966087;28;20571;-72
2022/03/15 03:31:03;;;;;;;;;;;;;;;0.98;42.29;95422.00;4966518;28;20124;-74
2022/03/15 03:33:28;;;;;;;17.73;9.43;;;;;;;0.75;42.25;95396.34;4957371;28;19931;-74
2022/03/15 03:35:53;;;;;;;13.82;8.23;;;;;;;0.71;42.28;95397.81;4967344;28;20579;-75
2022/03/15 03:38:19;;;;;;;21.10;9.75;;;;;;;0.62;42.29;95378.13;4962501;28;20026;-76
2022/03/15 03:40:44;;;;;;;20.02;9.88;;;;;;;0.83;42.24;95412.84;4964486;28;20481;-75
2022/03/15 03:43:14;;;;;;;20.67;10.68;;;;;;;1.07;41.79;95420.69;4966512;28;20035;-73
2022/03/15 03:45:41;;;;;;;20.58;10.13;;;;;;;1.04;41.92;95417.69;4979532;28;20405;-75
2022/03/15 03:48:07;;;;;;;16.88;10.15;;;;;;;0.71;42.04;95389.94;4984011;28;20038;-75
2022/03/15 03:50:34;;;;;;;22.65;11.23;;;;;;;0.82;42.28;95430.38;4976512;28;20565;-76
2022/03/15 03:52:59;;;;;;;20.88;12.50;;;;;;;0.89;42.31;95438.19;4980565;28;20029;-75
2022/03/15 03:55:25;;;;;;;19.33;11.65;;;;;;;0.94;42.13;95433.09;4953791;28;20792;-75
2022/03/15 03:57:50;;;;;;;22.13;11.02;;;;;;;0.93;41.79;95439.34;4966587;28;20116;-72
2022/03/15 04:00:17;;;;;;;22.38;12.30;;;;;;;0.69;42.60;95448.81;4966674;28;20386;-73
2022/03/15 04:02:43;;;;;;;20.77;10.88;;;;;;;0.59;43.14;95459.75;4983790;28;20035;-74
2022/03/15 04:05:09;;;;;;;17.73;9.98;;;;;;;0.69;42.52;95452.19;4980658;28;20033;-74
2022/03/15 04:07:37;;;;;;;17.80;11.18;;;;;;;0.86;42.35;95465.59;4955382;28;21103;-74
2022/03/15 04:10:06;;;;;;;25.20;11.98;;;;;;;0.11;42.95;95399.19;4960692;28;20042;-75
2022/03/15 04:12:34;;;;;;;25.55;12.40;;;;;;;0.35;43.28;95453.41;4983121;28;20618;-75
2022/03/15 04:15:00;;;;;;;22.60;11.85;;;;;;;0.35;43.36;95447.34;4967129;28;20049;-74
2022/03/15 04:17:26;;;;;;;23.23;13.07;;;;;;;0.32;43.76;95443.34;4965120;28;20027;-75
2022/03/15 04:19:52;;;;;;;25.13;14.07;;;;;;;0.42;43.58;95463.84;4958386;28;20027;-74
2022/03/15 04:22:18;;;;;;;27.08;14.43;;;;;;;0.42;43.77;95458.63;4981405;28;20043;-74
2022/03/15 04:24:43;;;;;;;30.65;15.43;;;;;;;0.37;43.75;95445.34;4956663;28;20480;-76
2022/03/15 04:27:08;;;;;;;26.23;14.45;;;;;;;0.55;43.61;95479.47;4965031;28;20045;-74
2022/03/15 04:29:37;;;;;;;33.00;16.17;;;;;;;0.61;43.52;95477.84;4964041;28;20030;-75
2022/03/15 04:32:03;;;;;;;32.72;17.20;;;;;;;0.57;43.69;95498.41;4967267;28;20031;-72
2022/03/15 04:34:30;;;;;;;32.97;15.15;;;;;;;0.74;43.17;95485.63;4964440;28;20026;-73
2022/03/15 04:36:57;;;;;;;28.80;15.13;;;;;;;0.83;43.06;95486.97;4959183;28;20038;-75
2022/03/15 04:39:22;;;;;;;31.90;15.52;;;;;;;0.33;43.01;95418.81;4966837;28;20049;-76
2022/03/15 04:41:48;;;;;;;23.67;14.50;;;;;;;0.64;42.97;95472.97;4965509;28;20042;-75
2022/03/15 04:44:14;;;;;;;26.02;14.00;;;;;;;0.38;43.46;95451.38;4964430;28;20473;-75
2022/03/15 04:46:39;;;;;;;31.45;14.23;;;;;;;0.41;43.82;95479.75;4962361;28;20034;-76
2022/03/15 04:49:05;;;;;;;22.67;11.38;;;;;;;0.39;43.93;95490.44;4961344;28;20494;-75
2022/03/15 04:51:30;;;;;;;25.63;12.73;;;;;;;0.29;44.08;95483.03;4965778;28;20038;-75
2022/03/15 04:53:56;;;;;;;21.33;11.27;;;;;;;0.33;44.17;95486.03;4965061;28;20581;-75
2022/03/15 04:56:21;;;;;;;18.25;10.90;;;;;;;0.27;44.04;95486.88;4963399;28;20606;-75
2022/03/15 04:58:47;;;;;;;21.23;10.05;;;;;;;0.20;44.11;95462.56;4959796;28;20735;-72
2022/03/15 05:01:13;;;;;;;22.55;12.32;;;;;;;0.40;43.98;95492.03;4994260;28;20404;-72
2022/03/15 05:03:40;;;;;;;24.10;12.43;;;;;;;0.50;43.73;95487.16;4976575;28;20401;-74
2022/03/15 05:06:05;;;;;;;23.40;11.80;;;;;;;0.48;43.78;95483.97;4963270;28;20038;-75
2022/03/15 05:08:30;;;;;;;24.80;13.60;;;;;;;0.57;43.84;95487.13;4964894;28;20592;-74
2022/03/15 05:11:08;;;;;;;21.65;13.63;;;;;;;0.68;43.99;95489.09;4958702;28;20398;-74
2022/03/15 05:13:45;;;;;;;21.08;10.82;;;;;;;0.53;43.97;95460.56;4964280;28;20034;-76
2022/03/15 05:16:28;;;;;;;20.02;10.30;;;;;;;0.70;43.90;95493.09;4958615;28;20359;-75
2022/03/15 05:18:54;;;;;;;17.10;10.20;;;;;;;0.65;43.85;95485.06;4963503;28;20493;-75
2022/03/15 05:21:23;;;;;;;19.02;9.93;;;;;;;0.82;43.80;95495.03;4962917;28;20034;-75
2022/03/15 05:23:49;;;;;;;17.90;10.05;;;;;;;0.75;43.73;95482.78;4967083;28;20042;-75
2022/03/15 05:26:16;;;;;;;21.65;11.63;;;;;;;1.01;43.58;95492.28;4959081;28;20033;-75
2022/03/15 05:28:42;;;;;;;23.38;11.98;;;;;;;1.13;43.17;95497.66;4962141;28;20035;-75
2022/03/15 05:31:08;;;;;;;19.92;11.13;;;;;;;1.11;42.98;95486.56;4964852;28;20425;-75
2022/03/15 05:33:34;;;;;;;15.25;8.80;;;;;;;1.24;42.68;95489.91;4959197;28;20030;-75
2022/03/15 05:36:00;;;;;;;16.92;9.10;;;;;;;1.02;42.71;95459.84;4963275;28;20394;-72
2022/03/15 05:38:26;;;;;;;21.30;11.02;;;;;;;1.22;42.78;95464.94;4959938;28;20360;-71
2022/03/15 05:40:52;;;;;;;29.92;11.43;;;;;;;1.50;42.58;95486.25;4967024;28;20482;-72
2022/03/15 05:43:19;;;;;;;19.52;11.45;;;;;;;1.54;42.67;95490.03;4961414;28;20039;-76
2022/03/15 05:45:44;;;;;;;24.63;12.80;;;;;;;1.17;42.91;95456.91;4962090;28;20058;-75
2022/03/15 05:48:10;;;;;;;28.27;12.60;;;;;;;1.43;42.59;95454.03;4965468;28;20118;-75
2022/03/15 05:50:35;;;;;;;20.15;10.82;;;;;;;1.51;42.68;95480.00;4960418;28;20778;-72
2022/03/15 05:53:04;;;;;;;24.60;13.65;;;;;;;1.62;42.45;95476.63;4978488;28;20065;-72
2022/03/15 05:55:31;;;;;;;29.33;14.57;;;;;;;1.72;42.38;95485.88;4957952;28;20176;-74
2022/03/15 05:57:57;;;;;;;25.35;13.40;;;;;;;1.68;42.20;95469.72;4959451;28;20038;-72
2022/03/15 06:00:22;;;;;;;30.23;14.93;;;;;;;1.94;42.02;95471.31;4966088;28;20460;-74
2022/03/15 06:02:48;;;;;;;28.63;15.30;;;;;;;1.99;42.47;95479.34;4966659;28;20124;-76
2022/03/15 06:05:13;;;;;;;27.60;13.55;;;;;;;2.13;42.27;95485.22;4968659;28;20041;-76
2022/03/15 06:07:46;;;;;;;32.00;14.07;;;;;;;1.86;42.33;95438.28;4969099;28;20137;-75
2022/03/15 06:10:11;;;;;;;30.92;14.55;;;;;;;2.34;42.31;95496.09;4967423;28;20031;-73
2022/03/15 06:12:37;;;;;;;38.15;18.33;;;;;;;2.45;41.70;95503.22;4971745;28;20458;-76
2022/03/15 06:15:03;;;;;;;31.17;15.45;;;;;;;2.40;41.21;95478.66;4966445;28;20541;-74
2022/03/15 06:17:28;;;;;;;30.90;18.02;;;;;;;2.56;41.49;95487.72;4995462;28;20587;-72
2022/03/15 06:19:53;;;;;;;45.50;20.42;;;;;;;2.56;41.43;95466.72;4963697;28;20033;-75
2022/03/15 06:22:19;;;;;;;44.55;21.92;;;;;;;2.65;41.10;95465.38;4963974;28;20094;-75
2022/03/15 06:24:44;;;;;;;42.20;21.92;;;;;;;2.75;40.83;95470.91;4965962;28;20408;-75
2022/03/15 06:27:10;;;;;;;43.55;23.83;;;;;;;2.94;40.21;95493.47;4967987;28;20054;-75
2022/03/15 06:29:35;;;;;;;52.33;25.98;;;;;;;3.11;40.32;95497.06;4970470;28;20030;-75
2022/03/15 06:32:01;;;;;;;51.47;23.30;;;;;;;2.80;40.78;95495.47;4966049;28;20536;-75
2022/03/15 06:34:27;;;;;;;66.78;27.00;;;;;;;3.01;40.67;95485.50;4967989;28;20088;-75
2022/03/15 06:36:52;;;;;;;38.53;22.38;;;;;;;2.83;40.59;95484.53;4958337;28;20375;-74
2022/03/15 06:39:17;;;;;;;55.88;25.80;;;;;;;2.10;41.30;95455.00;4968374;28;20544;-76
2022/03/15 06:41:43;;;;;;;42.92;23.10;;;;;;;2.55;41.05;95454.63;4976457;28;20061;-74
2022/03/15 06:44:09;;;;;;;45.47;20.83;;;;;;;3.09;40.40;95507.00;4971708;28;20109;-76
2022/03/15 06:46:37;;;;;;;50.00;23.63;;;;;;;2.79;40.67;95514.13;4966715;28;20042;-74
2022/03/15 06:49:05;;;;;;;54.92;23.27;;;;;;;2.93;40.41;95508.47;4967083;28;20043;-75
2022/03/15 06:51:30;;;;;;;47.75;23.52;;;;;;;3.19;39.60;95494.09;4967873;28;20039;-75
2022/03/15 06:53:56;;;;;;;41.22;24.20;;;;;;;3.15;39.92;95487.69;4965368;28;20077;-74
2022/03/15 06:56:21;;;;;;;38.38;19.90;;;;;;;3.38;39.12;95508.75;4968478;28;20570;-74
2022/03/15 06:58:47;;;;;;;40.50;19.85;;;;;;;3.52;39.18;95479.63;4963867;28;20054;-75
2022/03/15 07:01:12;;;;;;;53.78;20.70;;;;;;;3.52;38.81;95477.00;4969267;28;20050;-75
2022/03/15 07:03:38;;;;;;;37.17;19.77;;;;;;;3.39;39.04;95462.22;4972608;28;20038;-74
2022/03/15 07:06:03;;;;;;;38.80;18.73;;;;;;;3.21;39.20;95478.91;4965775;28;20039;-75
2022/03/15 07:08:30;;;;;;;50.22;21.15;;;;;;;3.40;39.45;95487.50;4971118;28;20274;-74
2022/03/15 07:10:55;;;;;;;33.15;19.17;;;;;;;3.44;39.01;95490.47;4962804;28;20141;-75
2022/03/15 07:13:20;;;;;;;42.67;21.55;;;;;;;3.79;38.90;95504.47;4964933;28;20488;-75
2022/03/15 07:15:46;;;;;;;46.92;21.77;;;;;;;3.61;38.93;95517.72;4968249;28;20039;-74
2022/03/15 07:18:12;;;;;;;38.85;18.55;;;;;;;3.59;38.35;95485.56;4964539;28;20039;-74
2022/03/15 07:20:37;;;;;;;44.75;19.13;;;;;;;3.55;38.65;95487.06;4964061;28;20042;-74
2022/03/15 07:23:03;;;;;;;32.95;16.42;;;;;;;3.75;38.48;95505.94;4957471;28;20678;-74
2022/03/15 07:25:29;;;;;;;40.53;17.50;;;;;;;3.22;38.57;95441.06;4966688;28;20458;-73
2022/03/15 07:27:54;;;;;;;38.17;18.00;;;;;;;3.64;38.81;95502.28;4962392;28;20498;-73
2022/03/15 07:30:20;;;;;;;29.30;16.65;;;;;;;3.20;39.48;95511.50;4966934;28;20473;-73
2022/03/15 07:32:45;;;;;;;30.13;16.40;;;;;;;3.27;40.36;95491.16;4963428;28;20128;-75
2022/03/15 07:35:12;;;;;;;28.77;15.77;;;;;;;3.84;38.83;95507.19;4960033;28;20537;-72
2022/03/15 07:37:37;;;;;;;36.92;18.45;;;;;;;3.43;39.16;95515.97;4968218;28;20038;-73
2022/03/15 07:40:04;;;;;;;29.83;14.95;;;;;;;3.80;38.34;95514.75;4964293;28;20112;-73
2022/03/15 07:42:30;;;;;;;28.00;15.18;;;;;;;3.45;38.45;95482.38;4963860;28;20544;-74
2022/03/15 07:44:55;;;;;;;24.60;11.82;;;;;;;3.80;37.72;95522.66;4966123;28;20397;-76
2022/03/15 07:47:21;;;;;;;19.60;12.07;;;;;;;3.69;38.13;95517.38;4964440;28;20404;-74
2022/03/15 07:49:48;;;;;;;27.10;15.18;;;;;;;3.20;39.06;95506.22;4965223;28;20485;-75
2022/03/15 07:52:14;;;;;;;30.67;16.27;;;;;;;2.98;40.33;95507.78;4962739;28;20038;-75
2022/03/15 07:54:40;;;;;;;35.00;16.92;;;;;;;3.15;40.54;95515.81;4962632;28;20034;-75
2022/03/15 07:57:05;;;;;;;35.03;17.55;;;;;;;3.19;40.39;95493.28;4966012;28;20682;-75
2022/03/15 07:59:30;;;;;;;29.52;16.20;;;;;;;3.22;40.88;95512.06;4962942;28;20159;-75
2022/03/15 08:01:56;;;;;;;37.88;18.27;;;;;;;3.66;39.68;95492.34;4968819;28;20412;-75
2022/03/15 08:04:21;;;;;;;31.60;16.90;;;;;;;3.61;40.31;95504.56;4969298;28;20046;-74
2022/03/15 08:06:47;;;;;;;36.60;15.70;;;;;;;3.00;40.48;95486.50;4969200;28;20053;-75
2022/03/15 08:09:14;;;;;;;31.25;15.52;;;;;;;2.94;41.51;95480.31;4965275;28;20300;-74
2022/03/15 08:11:45;;;;;;;38.22;15.07;;;;;;;3.21;41.03;95486.00;4962765;28;20042;-75
2022/03/15 08:14:12;;;;;;;35.70;13.95;;;;;;;3.93;39.19;95495.28;4967549;28;20026;-74
2022/03/15 08:16:38;;;;;;;32.00;15.48;;;;;;;4.04;38.57;95480.50;4961772;28;20050;-75
2022/03/15 08:19:04;;;;;;;32.22;16.08;;;;;;;3.40;39.31;95467.28;4968386;28;20066;-74
2022/03/15 08:21:31;;;;;;;37.90;16.73;;;;;;;2.97;40.77;95500.91;4965908;28;20034;-75
2022/03/15 08:23:57;;;;;;;44.58;16.75;;;;;;;3.24;40.36;95496.06;4965027;28;20046;-75
2022/03/15 08:26:23;;;;;;;34.40;17.33;;;;;;;2.92;40.82;95470.06;4961686;28;20041;-73
2022/03/15 08:28:49;;;;;;;39.45;17.88;;;;;;;2.63;41.82;95501.59;4970329;28;20565;-75
2022/03/15 08:31:16;;;;;;;37.72;18.70;;;;;;;2.72;42.15;95492.38;4968487;28;20097;-76
2022/03/15 08:33:44;;;;;;;33.55;19.15;;;;;;;2.99;41.61;95495.44;4967191;28;20424;-75
2022/03/15 08:36:10;;;;;;;29.13;17.17;;;;;;;3.31;41.41;95497.56;4961518;28;20057;-75
2022/03/15 08:38:35;;;;;;;35.25;17.15;;;;;;;3.30;40.68;95458.34;4977213;28;20485;-75
2022/03/15 08:41:01;;;;;;;37.58;18.98;;;;;;;3.63;40.63;95474.34;4967632;28;20033;-75
2022/03/15 08:43:26;;;;;;;36.38;19.52;;;;;;;3.38;41.44;95489.56;4964193;28;20134;-75
2022/03/15 08:45:52;;;;;;;47.03;19.25;;;;;;;3.55;41.34;95476.53;4979577;28;20085;-75
2022/03/15 08:48:18;;;;;;;35.45;19.80;;;;;;;2.99;42.10;95456.78;4966439;28;20042;-75
2022/03/15 08:50:44;;;;;;;38.60;18.50;;;;;;;2.86;42.27;95383.41;4965192;28;20459;-75
2022/03/15 08:53:09;;;;;;;45.38;20.17;;;;;;;3.49;41.54;95440.63;4968465;28;20389;-75
2022/03/15 08:55:35;;;;;;;41.47;19.88;;;;;;;3.38;41.42;95440.38;4965057;28;20089;-75
2022/03/15 08:58:02;;;;;;;35.78;19.35;;;;;;;3.97;41.44;95467.47;4968649;28;21732;-75
2022/03/15 09:00:27;;;;;;;44.03;20.42;;;;;;;4.34;40.88;95464.56;4961596;28;20041;-75
2022/03/15 09:02:53;;;;;;;36.13;20.98;;;;;;;4.15;40.31;95450.75;4966132;28;20030;-75
2022/03/15 09:05:19;;;;;;;46.22;21.50;;;;;;;4.13;40.43;95447.53;4980463;28;20022;-75
2022/03/15 09:07:49;;;;;;;48.58;23.20;;;;;;;4.48;39.84;95460.63;4967516;28;20073;-75
2022/03/15 09:10:15;;;;;;;49.70;21.00;;;;;;;4.58;39.12;95442.38;4996397;28;20034;-76
2022/03/15 09:12:40;;;;;;;37.10;21.55;;;;;;;4.62;39.90;95435.59;4970676;28;20484;-75
2022/03/15 09:15:06;;;;;;;35.72;19.88;;;;;;;5.09;38.52;95415.03;4958546;28;20081;-76
2022/03/15 09:17:31;;;;;;;36.25;20.50;;;;;;;5.45;38.05;95450.69;4964039;28;20037;-75
2022/03/15 09:19:57;;;;;;;35.50;20.55;;;;;;;5.19;37.77;95424.97;4979084;28;20116;-75
2022/03/15 09:22:22;;;;;;;37.67;18.15;;;;;;;4.89;38.09;95426.06;4964429;28;20058;-75
2022/03/15 09:24:47;;;;;;;41.85;18.75;;;;;;;5.31;38.37;95438.88;4967646;28;20327;-76
2022/03/15 09:27:13;;;;;;;45.50;22.30;;;;;;;5.34;38.04;95446.28;4956878;28;20046;-75
2022/03/15 09:29:39;;;;;;;32.67;18.45;;;;;;;4.89;38.37;95430.53;4970145;28;20736;-75
2022/03/15 09:32:07;;;;;;;33.50;19.08;;;;;;;5.11;38.35;95437.50;4962745;28;20485;-75
2022/03/15 09:34:33;;;;;;;39.50;17.65;;;;;;;5.18;37.83;95436.56;4965908;28;20042;-76
2022/03/15 09:36:59;;;;;;;37.78;18.33;;;;;;;5.23;37.55;95404.97;4963396;28;20038;-72
2022/03/15 09:39:25;;;;;;;34.42;20.10;;;;;;;5.15;37.60;95408.81;4965396;28;20042;-73
2022/03/15 09:41:58;;;;;;;45.35;20.95;;;;;;;4.90;37.66;95408.38;4963702;28;20529;-76
2022/03/15 09:44:27;;;;;;;35.65;20.00;;;;;;;5.47;37.15;95424.88;4969123;28;20128;-72
2022/03/15 09:46:55;;;;;;;36.17;18.25;;;;;;;5.59;37.21;95430.84;4966424;28;20038;-74
2022/03/15 09:49:24;;;;;;;37.75;20.33;;;;;;;6.02;36.43;95414.25;4963516;28;20050;-74
2022/03/15 09:51:51;;;;;;;36.45;19.08;;;;;;;6.30;35.36;95421.25;4966200;28;20067;-74
2022/03/15 09:54:17;;;;;;;43.58;20.67;;;;;;;6.46;35.46;95404.50;4961607;28;20042;-74
2022/03/15 09:56:43;;;;;;;35.60;17.27;;;;;;;6.50;34.66;95388.94;4969257;28;20038;-72
2022/03/15 09:59:15;;;;;;;36.13;17.50;;;;;;;6.84;34.20;95396.44;4963916;28;20030;-74
2022/03/15 10:01:43;;;;;;;42.00;19.05;;;;;;;6.74;34.17;95412.19;4965766;28;20516;-73
2022/03/15 10:04:09;;;;;;;39.60;21.15;;;;;;;6.53;35.50;95391.09;4966532;28;20043;-73
2022/03/15 10:06:37;;;;;;;35.22;20.55;;;;;;;6.92;33.97;95381.13;4978411;28;20042;-74
2022/03/15 10:09:03;;;;;;;33.00;18.58;;;;;;;7.11;32.95;95371.78;4966540;28;20042;-77
2022/03/15 10:11:29;;;;;;;66.13;27.55;;;;;;;7.13;33.18;95382.91;4965901;28;20695;-73
2022/03/15 10:13:55;;;;;;;39.95;22.08;;;;;;;7.39;33.66;95371.44;4959254;28;20246;-75
2022/03/15 10:16:22;;;;;;;34.92;19.05;;;;;;;7.50;32.65;95370.47;4949612;28;20039;-76
2022/03/15 10:18:55;;;;;;;34.85;19.40;;;;;;;7.67;32.11;95389.66;4958776;28;20168;-76
2022/03/15 10:21:24;;;;;;;40.38;21.85;;;;;;;7.91;33.13;95382.13;4963281;28;20027;-75
2022/03/15 10:23:54;;;;;;;37.00;21.20;;;;;;;7.47;33.84;95376.28;4968271;28;20378;-76
2022/03/15 10:26:26;;;;;;;37.28;24.10;;;;;;;7.65;32.90;95375.84;4965763;28;20074;-75
2022/03/15 10:28:54;;;;;;;33.70;20.42;;;;;;;7.75;33.06;95359.25;4967935;28;20051;-75
2022/03/15 10:31:24;;;;;;;42.95;22.75;;;;;;;7.61;32.67;95356.22;4959499;28;20046;-76
2022/03/15 10:33:53;;;;;;;36.22;19.20;;;;;;;7.50;33.02;95364.38;4965457;28;20068;-75
2022/03/15 10:36:21;;;;;;;38.28;19.10;;;;;;;7.67;32.42;95343.81;4963425;28;20058;-74
2022/03/15 10:38:51;;;;;;;37.25;18.20;;;;;;;7.68;32.41;95354.13;4958928;28;20039;-76
2022/03/15 10:41:17;;;;;;;29.35;15.20;;;;;;;7.35;30.31;95330.66;4941064;28;20149;-76
2022/03/15 10:43:43;;;;;;;28.27;14.13;;;;;;;7.58;31.19;95338.19;4962256;28;20529;-75
2022/03/15 10:46:12;;;;;;;23.17;12.13;;;;;;;7.59;29.43;95331.84;4964453;28;20545;-75
2022/03/15 10:48:38;;;;;;;24.33;13.40;;;;;;;7.95;28.31;95327.53;4962472;28;20510;-75
2022/03/15 10:51:17;;;;;;;22.90;13.00;;;;;;;8.28;28.38;95323.66;4960821;28;21174;-74
2022/03/15 10:53:45;;;;;;;19.98;13.38;;;;;;;8.48;28.10;95323.72;4978637;28;20046;-75
2022/03/15 10:56:11;;;;;;;18.08;11.93;;;;;;;8.20;27.96;95318.88;4977913;28;20234;-75
2022/03/15 10:58:48;;;;;;;22.60;10.45;;;;;;;8.40;26.89;95328.75;4966953;28;20042;-75
2022/03/15 11:01:16;;;;;;;22.45;10.80;;;;;;;8.46;26.39;95317.84;4963111;28;20039;-76
2022/03/15 11:03:53;;;;;;;20.05;10.02;;;;;;;8.75;26.74;95294.31;4971420;28;20038;-76
2022/03/15 11:06:39;;;;;;;23.25;11.30;;;;;;;9.04;25.90;95291.91;4968593;28;20051;-74
2022/03/15 11:09:18;;;;;;;;;;;;;;;9.24;26.14;95312.34;4973602;28;20048;-75
2022/03/15 11:11:53;;;;;;;23.05;10.57;;;;;;;9.30;26.14;95298.78;4966361;28;19933;-75
2022/03/15 11:14:40;;;;;;;16.80;10.57;;;;;;;9.22;26.12;95290.56;4960807;28;20479;-75
2022/03/15 11:17:10;;;;;;;21.48;11.18;;;;;;;9.26;26.47;95283.66;4967999;28;20114;-75
2022/03/15 11:19:44;;;;;;;19.98;10.23;;;;;;;9.14;26.48;95264.59;4979773;28;20461;-76
2022/03/15 11:22:13;;;;;;;13.43;8.35;;;;;;;9.54;26.03;95277.75;4964177;28;20042;-75
2022/03/15 11:24:49;;;;;;;20.15;8.43;;;;;;;9.32;25.95;95256.84;4969162;28;20049;-75
2022/03/15 11:27:16;;;;;;;11.82;8.75;;;;;;;9.38;25.85;95245.13;4963088;28;20034;-76